Terminal Aerodrome Forecast
Issued by NWS

Home | Current Version | Previous Version | Graphics & Text | Print | Product List | Glossary On
Versions: 1 2 3 4 5 6 7 8 9 10 11 12 13 14 15 16 17 18 19
000
FTUS41 KCLE 201900 AAA
TAFFDY
TAF AMD
KFDY 201916Z 2019/2118 VRB03KT P6SM BKN040
     FM210100 00000KT P6SM SCT250
     FM210800 00000KT 4SM BR SCT250
     FM211000 00000KT 1SM BR SCT250
     FM211400 00000KT P6SM SCT035=

USA.gov is the U.S. government's official web portal to all federal, state and local government web resources and services.